Date,TemperatureHighF,TemperatureAvgF,TemperatureLowF,DewpointHighF,DewpointAvgF,DewpointLowF,HumidityHigh,HumidityAvg,HumidityLow,PressureMaxIn,PressureMinIn,WindSpeedMaxMPH,WindSpeedAvgMPH,GustSpeedMaxMPH,PrecipitationSumIn
2013-1-1,33,21,14,14,9,3,86,61,36,30.42,30.24,4,0,7,0.00
2013-1-2,34,23,13,12,8,3,67,53,30,30.52,30.35,9,-9,15,0.00
2013-1-3,39,24,13,8,3,-3,65,42,17,30.54,30.40,5,1,9,0.00
2013-1-4,48,30,17,15,7,1,58,39,18,30.42,30.17,6,-6,8,0.00
2013-1-5,41,28,18,16,13,9,71,53,32,30.43,30.19,9,1,13,0.00
2013-1-6,49,30,14,18,10,-3,73,47,12,30.42,30.06,4,-7,6,0.00
2013-1-7,54,38,26,18,12,4,66,37,13,30.11,29.84,6,-3,9,0.00
2013-1-8,54,42,27,20,16,10,63,38,22,30.23,29.83,13,2,23,0.00
2013-1-9,62,40,24,22,17,12,70,44,14,30.36,30.02,7,1,12,0.00
2013-1-10,45,35,26,22,17,11,65,48,30,30.02,29.51,9,-6,15,0.00
2013-1-11,43,30,15,26,17,5,85,61,30,29.86,29.30,12,-8,19,0.00
2013-1-12,18,10,5,8,3,1,85,76,58,30.37,29.87,9,-9,13,0.00
2013-1-13,16,9,3,4,1,-2,83,71,55,30.49,30.37,6,-13,9,0.00
2013-1-14,15,9,5,5,2,-2,82,72,60,30.54,30.41,7,-20,10,0.00
2013-1-15,32,20,2,12,3,-4,80,51,32,30.51,30.38,6,-16,9,0.00
2013-1-16,53,37,24,22,17,12,67,46,27,30.43,30.28,5,1,8,0.00
2013-1-17,52,35,21,21,18,15,78,53,24,30.54,30.30,4,-3,7,0.00
2013-1-18,59,41,26,17,9,2,65,31,10,30.30,30.10,12,2,23,0.00
2013-1-19,61,46,32,12,5,-4,38,21,8,30.23,30.10,11,1,17,0.00
2013-1-20,49,35,25,19,14,11,70,44,23,30.32,30.10,12,-2,17,0.00
2013-1-21,57,39,19,16,9,-2,79,39,11,30.32,30.11,10,-1,17,0.00
2013-1-22,64,49,33,4,-6,-20,27,12,3,30.11,29.98,16,-1,22,0.00
2013-1-23,55,43,34,11,4,-3,30,20,12,30.15,30.07,5,1,8,0.00
2013-1-24,67,48,30,28,18,6,46,32,12,30.13,29.90,15,4,25,0.00
2013-1-25,58,44,33,29,26,23,69,50,30,30.09,29.96,6,1,10,0.00
2013-1-26,53,46,29,36,28,22,80,50,36,30.03,29.73,4,1,8,0.00
2013-1-27,58,44,32,38,33,25,92,67,38,29.75,29.65,6,1,10,0.00
2013-1-28,59,39,28,30,25,18,92,60,22,29.74,29.44,10,-2,16,0.00
2013-1-29,32,26,20,25,16,5,90,66,34,30.11,29.73,8,-5,15,0.14
2013-1-30,40,30,15,17,12,4,77,49,32,30.11,29.98,15,0,26,0.01
2013-1-31,47,39,25,23,18,14,75,44,27,30.17,30.00,13,3,22,0.01
2013-2-1,50,37,24,23,19,14,85,52,25,30.26,30.07,14,-1,24,0.00
2013-2-2,60,40,25,20,16,7,69,42,12,30.35,30.23,9,2,14,0.00
2013-2-3,53,39,25,18,13,1,68,39,12,30.27,29.91,11,-2,18,0.00
2013-2-4,54,40,27,16,12,3,56,33,13,30.01,29.85,16,-1,28,0.00
2013-2-5,61,44,29,19,17,15,60,37,18,30.06,29.80,6,1,10,0.00
2013-2-6,56,42,30,33,25,19,90,54,27,30.07,29.75,8,1,15,0.03
2013-2-7,49,37,27,33,23,13,91,62,25,30.19,30.06,6,-6,11,0.01
2013-2-8,52,36,26,20,17,12,64,46,24,30.06,29.74,6,1,10,0.00
2013-2-9,38,31,24,29,21,14,87,67,50,29.76,29.58,6,-2,11,0.01
2013-2-10,38,29,22,21,16,8,83,60,32,30.19,29.67,10,2,16,0.00
2013-2-11,30,24,18,16,14,12,81,68,51,30.22,30.12,6,-2,10,0.00
2013-2-12,42,29,15,15,5,-9,79,43,13,30.25,30.16,8,-3,11,0.00
2013-2-13,47,35,23,15,12,7,54,38,22,30.17,30.01,17,0,29,0.00
2013-2-14,36,29,25,23,18,14,85,64,44,30.41,30.06,11,-2,20,0.00
2013-2-15,42,28,17,19,15,11,84,60,31,30.49,30.37,11,-9,17,0.02
2013-2-16,57,42,24,15,14,11,64,35,18,30.37,29.96,15,4,25,0.00
2013-2-17,64,44,29,20,7,-10,60,29,5,29.97,29.49,13,2,21,0.00
2013-2-18,42,33,26,21,11,-1,77,43,17,30.17,29.75,15,3,27,0.00
2013-2-19,40,26,20,12,8,5,59,47,30,30.17,30.01,5,-6,8,0.00
2013-2-20,37,27,21,28,18,14,91,67,48,29.90,29.71,7,-9,12,0.00
2013-2-21,29,22,16,21,17,13,89,81,66,30.09,29.85,6,1,9,0.19
2013-2-22,35,25,16,19,16,12,85,68,50,30.15,30.03,8,-2,11,0.04
2013-2-23,47,32,19,27,17,9,89,57,30,30.03,29.69,10,2,16,0.04
2013-2-24,30,27,25,27,25,19,92,89,79,30.25,29.79,8,-2,15,0.00
2013-2-25,38,27,13,22,15,9,87,63,38,30.25,29.97,5,-3,11,0.29
2013-2-26,33,27,20,26,20,14,87,73,57,30.30,29.95,11,-2,20,0.06
2013-2-27,37,23,18,17,-8,-100,80,44,31,30.41,30.30,8,-192,15,0.00
2013-2-28,41,13,35,16,-61,-100,42,13,32,30.37,30.21,13,-656,22,0.01
2013-3-1,48,38,27,23,20,15,67,48,32,30.39,30.26,8,2,15,0.00
2013-3-2,62,46,30,27,24,22,73,46,23,30.35,29.99,10,-2,19,0.00
2013-3-3,65,51,39,27,24,19,58,37,18,29.99,29.53,12,2,27,0.00
2013-3-4,45,31,20,28,23,14,88,71,46,30.34,29.56,13,2,23,0.03
2013-3-5,41,28,14,22,16,8,80,62,41,30.46,30.28,7,1,10,0.03
2013-3-6,61,39,22,31,22,13,85,57,16,30.28,29.88,8,1,13,0.00
2013-3-7,65,47,30,29,25,20,73,45,18,29.97,29.78,10,2,17,0.00
2013-3-8,49,40,32,33,30,27,82,68,48,29.90,29.67,7,1,11,0.00
2013-3-9,37,32,27,32,28,18,93,83,64,30.18,29.64,8,-1,16,0.12
2013-3-10,43,32,18,24,18,13,85,57,34,30.29,30.13,6,-6,12,0.22
2013-3-11,54,40,30,30,23,16,91,55,28,30.16,29.90,13,4,23,0.00
2013-3-12,39,32,25,30,26,22,92,82,65,30.37,30.15,6,0,9,0.25
2013-3-13,66,47,31,38,27,20,86,52,19,30.35,30.19,10,2,16,0.00
2013-3-14,73,55,39,28,24,6,62,34,8,30.23,30.01,12,2,18,0.00
2013-3-15,75,62,48,26,23,16,40,24,11,30.01,29.66,12,3,23,0.00
2013-3-16,56,48,41,35,32,24,71,54,30,29.80,29.67,9,2,13,0.00
2013-3-17,60,46,35,34,25,12,76,48,17,29.81,29.46,16,4,28,0.00
2013-3-18,51,42,32,19,12,7,45,30,20,29.93,29.81,14,4,27,0.00
2013-3-19,55,43,31,20,7,-13,56,26,6,30.35,29.92,13,4,21,0.00
2013-3-20,54,39,24,26,20,15,74,49,26,30.34,29.75,7,1,12,0.00
2013-3-21,60,44,35,34,21,10,63,42,21,29.77,29.44,14,4,24,0.00
2013-3-22,49,36,28,29,22,13,92,59,34,29.95,29.61,14,-1,21,0.00
2013-3-23,28,21,15,26,17,11,92,85,78,30.40,29.95,6,-12,13,0.00
2013-3-24,27,19,8,18,12,5,87,75,57,30.47,30.34,7,-6,13,0.13
2013-3-25,34,25,15,17,12,5,89,62,30,30.50,30.37,7,-2,10,0.17
2013-3-26,54,35,20,32,21,13,78,57,27,30.37,30.00,6,-2,10,0.03
2013-3-27,57,43,30,36,30,24,80,63,41,30.11,30.02,8,1,11,0.00
2013-3-28,65,48,34,37,32,24,88,59,23,30.09,29.99,7,1,13,0.00
2013-3-29,68,52,39,34,30,26,71,46,22,30.05,29.93,12,2,17,0.00
2013-3-30,68,52,40,38,30,18,76,49,16,30.12,29.86,14,3,22,0.00
2013-3-31,72,54,36,36,26,11,83,44,10,30.10,29.83,9,2,17,0.00
2013-4-1,54,44,34,34,30,24,80,61,38,30.06,29.90,12,3,19,0.00
2013-4-2,42,39,37,36,34,32,91,82,70,30.16,30.04,5,1,8,0.12
2013-4-3,61,47,37,39,33,26,92,64,27,30.18,30.03,7,1,14,0.04
2013-4-4,69,55,38,33,28,24,72,41,19,30.10,29.86,8,1,11,0.00
2013-4-5,73,59,48,36,27,21,52,31,15,29.86,29.49,21,2,36,0.00
2013-4-6,66,56,46,34,25,20,46,30,20,29.77,29.66,12,2,21,0.00
2013-4-7,65,55,43,35,29,22,71,40,20,29.70,29.52,12,3,24,0.00
2013-4-8,67,48,28,35,30,25,89,54,27,29.74,29.24,12,3,26,0.00
2013-4-9,27,19,12,25,14,8,89,81,70,30.44,29.75,10,-4,16,0.00
2013-4-10,29,20,11,17,12,6,83,69,53,30.43,30.10,8,1,11,0.16
2013-4-11,58,39,22,37,27,16,83,64,32,30.10,29.87,13,-2,18,0.03
2013-4-12,61,44,34,35,31,20,84,63,21,29.95,29.82,11,2,22,0.00
2013-4-13,69,51,32,35,26,14,88,48,13,29.92,29.31,9,2,14,0.00
2013-4-14,50,44,36,40,22,8,89,46,19,29.72,29.38,16,1,28,0.21
2013-4-15,40,30,24,28,23,13,91,78,33,30.14,29.68,8,2,13,0.00
2013-4-16,34,29,24,29,26,22,91,87,79,30.15,29.96,10,-4,16,0.24
2013-4-17,32,27,21,28,25,18,93,89,85,30.31,30.01,9,-11,19,0.01
2013-4-18,37,28,17,19,15,11,87,61,38,30.33,30.27,8,-6,13,0.13
2013-4-19,54,42,26,25,19,14,70,41,26,30.30,29.95,12,2,21,0.00
2013-4-20,60,48,36,36,30,23,72,50,30,29.96,29.82,7,1,12,0.00
2013-4-21,64,52,40,35,27,19,79,41,19,30.01,29.85,9,2,16,0.00
2013-4-22,55,35,24,36,28,21,91,75,45,30.35,29.77,12,-2,20,0.04
2013-4-23,35,27,21,21,19,17,91,73,50,30.42,30.29,7,-2,11,0.36
2013-4-24,56,41,24,23,18,12,71,44,18,30.34,30.19,9,2,14,0.00
2013-4-25,67,51,32,30,20,11,59,34,13,30.20,29.82,7,1,10,0.00
2013-4-26,68,56,41,27,22,13,55,29,15,30.09,29.91,9,2,14,0.00
2013-4-27,76,60,40,28,22,13,55,27,10,30.09,29.85,8,2,14,0.00
2013-4-28,81,65,46,34,26,19,45,25,12,29.87,29.58,11,2,18,0.00
2013-4-29,82,68,52,36,28,20,51,26,11,29.70,29.34,12,2,21,0.00
2013-4-30,65,52,40,39,34,25,86,51,22,29.89,29.35,13,2,23,0.01
2013-5-1,40,32,25,36,29,22,93,91,85,30.74,29.89,9,-2,16,0.26
2013-5-2,45,36,22,28,22,18,92,62,34,30.86,30.51,7,1,11,0.35
2013-5-3,61,48,30,28,25,20,82,45,22,30.51,30.06,9,2,14,0.00
2013-5-4,61,50,38,34,28,22,69,44,29,30.14,30.01,12,2,16,0.00
2013-5-5,58,49,39,35,27,22,60,43,30,30.14,30.00,7,1,10,0.00
2013-5-6,67,55,43,39,33,28,68,46,31,30.04,29.78,8,2,11,0.00
2013-5-7,73,57,47,47,39,33,83,53,24,29.84,29.69,8,2,13,0.08
2013-5-8,62,49,44,47,43,39,90,79,45,30.01,29.78,10,2,15,0.44
2013-5-9,57,50,44,46,43,39,92,78,54,30.13,30.00,13,2,21,0.15
2013-5-10,68,54,38,42,38,34,89,59,30,30.19,30.10,10,2,20,0.00
2013-5-11,71,59,46,43,38,33,74,48,27,30.27,30.05,10,1,16,0.02
2013-5-12,80,66,50,41,36,31,64,37,19,30.08,29.88,8,1,16,0.00
2013-5-13,87,72,54,42,38,35,54,32,16,29.92,29.73,8,1,13,0.00
2013-5-14,88,72,58,42,38,32,49,31,14,29.73,29.61,11,2,19,0.00
2013-5-15,85,67,58,52,43,36,72,45,19,29.73,29.57,13,-2,19,0.09
2013-5-16,86,69,52,48,41,33,78,42,16,29.68,29.53,7,1,13,0.00
2013-5-17,91,74,53,46,31,10,64,27,5,29.61,29.40,9,2,20,0.00
2013-5-18,81,66,56,40,32,23,48,30,13,29.60,29.44,11,1,17,0.00
2013-5-19,71,61,54,40,33,24,57,36,18,29.64,29.51,12,2,18,0.00
2013-5-20,66,56,49,47,41,33,86,59,37,29.87,29.62,11,2,21,0.08
2013-5-21,72,59,44,42,35,28,83,47,21,29.92,29.71,11,2,19,0.00
2013-5-22,78,62,47,48,38,33,68,44,21,29.85,29.64,10,2,14,0.00
2013-5-23,73,61,48,48,46,44,87,59,37,29.89,29.71,9,2,14,0.00
2013-5-24,89,70,50,56,42,22,86,46,9,29.77,29.60,8,2,15,0.00
2013-5-25,90,74,56,55,36,8,70,34,5,29.69,29.51,7,1,10,0.00
2013-5-26,85,72,57,42,31,16,42,24,8,29.61,29.51,14,2,26,0.00
2013-5-27,83,71,54,42,29,16,47,25,9,29.57,29.41,10,2,19,0.00
2013-5-28,87,68,52,45,37,23,62,36,10,29.55,29.26,10,1,19,0.00
2013-5-29,67,58,50,52,44,31,91,62,31,29.54,29.31,10,2,14,0.22
2013-5-30,71,61,50,35,29,22,54,31,17,29.69,29.50,14,5,24,0.00
2013-5-31,74,64,54,29,20,10,34,19,9,29.81,29.64,16,5,28,0.00
2013-6-1,70,60,47,38,35,20,68,41,21,30.03,29.80,10,2,16,0.00
2013-6-2,87,67,46,40,34,28,68,34,13,30.03,29.56,9,1,15,0.00
2013-6-3,92,76,56,40,31,18,48,24,7,29.60,29.39,13,3,22,0.00
2013-6-4,76,64,51,55,45,23,87,54,19,29.99,29.61,8,2,17,0.13
2013-6-5,59,53,47,47,46,41,90,77,63,30.05,29.97,8,1,12,0.01
2013-6-6,80,64,45,49,42,34,89,50,21,30.03,29.83,9,1,14,0.00
2013-6-7,84,69,55,45,42,37,60,39,20,29.90,29.53,12,1,17,0.00
2013-6-8,77,69,59,50,43,39,53,40,29,29.78,29.48,11,2,21,0.00
2013-6-9,93,74,53,46,40,31,69,34,13,29.81,29.60,8,1,10,0.00
2013-6-10,100,83,64,43,37,29,40,22,9,29.62,29.44,7,1,16,0.00
2013-6-11,100,83,63,43,29,-4,47,19,3,29.58,29.36,15,2,26,0.00
2013-6-12,92,80,62,51,33,24,46,20,10,29.75,29.58,9,2,20,0.00
2013-6-13,83,72,58,57,52,40,82,54,28,29.77,29.57,16,2,24,0.01
2013-6-14,92,80,67,48,40,27,48,26,10,29.66,29.48,12,2,22,0.00
2013-6-15,83,71,60,57,48,45,62,46,31,29.77,29.59,8,2,12,0.02
2013-6-16,85,71,60,52,46,32,71,44,17,29.86,29.74,12,1,24,0.00
2013-6-17,84,70,54,50,44,37,69,42,20,29.91,29.77,10,1,15,0.00
2013-6-18,84,70,57,53,49,40,81,50,22,29.85,29.59,9,2,20,0.00
2013-6-19,98,78,56,51,41,19,73,35,6,29.70,29.31,8,1,16,0.00
2013-6-20,92,76,61,52,36,24,65,26,10,29.57,29.40,9,1,14,0.00
2013-6-21,95,79,61,53,37,20,52,27,7,29.58,29.40,14,1,24,0.00
2013-6-22,86,73,59,50,47,40,66,42,21,29.60,29.42,8,1,14,0.00
2013-6-23,89,70,56,56,48,38,82,51,18,29.75,29.52,11,1,17,0.38
2013-6-24,90,74,58,53,42,28,70,39,12,29.65,29.45,7,1,14,0.00
2013-6-25,93,78,60,43,37,30,47,24,13,29.67,29.49,9,2,13,0.00
2013-6-26,99,82,62,45,40,33,48,26,11,29.75,29.62,8,1,13,0.00
2013-6-27,97,84,67,48,42,35,45,25,12,29.84,29.69,9,2,15,0.00
2013-6-28,94,80,66,60,51,36,81,39,18,29.92,29.71,12,2,24,0.49
2013-6-29,85,74,63,57,54,47,77,53,29,29.88,29.77,6,1,12,0.00
2013-6-30,79,70,64,58,55,50,72,59,44,29.92,29.84,6,1,10,0.00
2013-7-1,82,70,59,57,53,47,83,57,34,30.02,29.91,7,2,13,0.06
2013-7-2,84,71,57,57,50,41,92,55,27,29.98,29.84,10,1,16,0.01
2013-7-3,91,74,58,51,48,41,74,44,20,29.84,29.59,9,1,14,0.00
2013-7-4,91,76,61,52,48,41,67,40,20,29.68,29.57,9,1,18,0.00
2013-7-5,93,76,65,57,51,47,60,44,23,29.58,29.48,9,1,16,0.00
2013-7-6,90,77,68,61,51,44,67,42,21,29.65,29.52,8,1,15,0.03
2013-7-7,88,76,65,57,53,49,67,47,31,29.73,29.63,6,1,11,0.00
2013-7-8,98,80,67,55,49,38,63,36,13,29.75,29.65,8,1,17,0.00
2013-7-9,98,81,65,52,46,35,58,34,12,29.82,29.74,6,1,17,0.00
2013-7-10,91,78,64,59,52,45,63,43,27,29.84,29.67,9,1,13,0.00
2013-7-11,101,80,64,61,53,33,80,46,11,29.75,29.47,10,1,24,0.25
2013-7-12,94,77,66,62,55,49,75,50,22,29.71,29.54,9,1,19,0.03
2013-7-13,93,73,63,62,59,53,92,67,27,29.86,29.68,13,1,24,0.61
2013-7-14,82,70,59,61,59,57,93,71,45,29.95,29.79,10,2,15,0.01
2013-7-15,79,70,64,67,60,45,94,73,47,29.91,29.80,9,1,16,1.36
2013-7-16,86,72,57,55,50,46,81,50,27,29.92,29.83,9,2,14,0.00
2013-7-17,92,76,60,58,53,47,78,48,25,29.93,29.76,8,1,15,0.00
2013-7-18,94,77,64,56,53,49,70,45,24,29.83,29.68,11,2,18,0.00
2013-7-19,83,75,67,58,55,51,68,52,35,29.84,29.74,10,2,15,0.00
2013-7-20,93,75,62,57,54,45,76,52,21,29.74,29.58,14,1,22,0.00
2013-7-21,90,76,62,60,55,49,73,52,26,29.66,29.56,8,1,12,0.00
2013-7-22,96,80,65,59,50,42,72,39,16,29.65,29.55,8,1,14,0.00
2013-7-23,91,78,63,57,49,38,55,37,22,29.78,29.58,8,2,15,0.00
2013-7-24,84,74,64,62,55,46,68,52,31,29.85,29.71,11,2,24,0.00
2013-7-25,82,67,60,60,55,50,87,67,34,30.02,29.75,14,1,22,0.10
2013-7-26,87,72,58,55,50,41,81,50,22,30.04,29.84,8,1,15,0.00
2013-7-27,80,68,58,61,53,49,90,61,42,29.88,29.74,8,2,11,0.14
2013-7-28,73,64,60,61,59,57,93,83,62,29.82,29.69,5,0,11,0.01
2013-7-29,73,65,60,62,58,54,92,79,57,29.95,29.71,7,1,12,0.01
2013-7-30,90,72,57,55,51,46,84,53,23,30.00,29.88,9,1,19,0.00
2013-7-31,95,77,62,57,51,40,69,45,17,30.01,29.79,10,1,17,0.00
2013-8-1,98,76,62,57,52,36,79,48,13,29.88,29.62,10,1,19,0.00
2013-8-2,94,78,63,56,50,43,70,42,18,29.71,29.60,8,1,14,0.00
2013-8-3,92,74,60,60,55,45,90,57,23,29.96,29.67,12,1,24,0.49
2013-8-4,90,73,57,57,53,45,86,56,22,29.90,29.78,6,1,10,0.00
2013-8-5,88,74,61,56,51,44,71,48,25,29.81,29.71,10,1,14,0.00
2013-8-6,90,73,61,54,49,39,75,46,18,29.78,29.66,12,2,19,0.00
2013-8-7,77,68,63,55,53,48,71,58,39,29.81,29.72,7,1,13,0.00
2013-8-8,79,65,60,61,55,48,90,72,45,29.95,29.75,7,1,12,0.11
2013-8-9,84,66,55,54,50,44,81,59,27,30.00,29.90,6,1,13,0.00
2013-8-10,89,70,54,54,48,41,79,51,20,29.99,29.81,11,1,18,0.08
2013-8-11,83,72,61,55,50,43,70,48,28,29.92,29.83,9,1,14,0.00
2013-8-12,82,69,59,58,53,48,90,59,35,30.00,29.83,11,1,17,0.32
2013-8-13,82,66,55,56,52,47,90,62,34,30.00,29.88,10,-2,15,0.04
2013-8-14,85,69,55,56,50,43,88,54,25,29.98,29.84,8,1,14,0.00
2013-8-15,89,72,56,52,46,36,68,44,18,29.90,29.81,8,1,23,0.00
2013-8-16,95,76,57,53,44,31,70,38,12,29.89,29.76,8,1,10,0.00
2013-8-17,98,79,60,51,43,24,65,35,8,29.83,29.66,6,0,9,0.00
2013-8-18,97,79,62,57,48,37,76,37,14,29.78,29.67,6,1,13,0.00
2013-8-19,99,80,61,50,45,34,64,33,12,29.77,29.65,6,1,11,0.00
2013-8-20,100,83,66,51,42,25,48,28,8,29.68,29.56,7,1,13,0.00
2013-8-21,94,78,68,59,49,44,69,39,20,29.79,29.64,14,1,26,0.04
2013-8-22,83,70,64,63,58,54,84,66,46,29.92,29.78,10,1,16,0.11
2013-8-23,92,72,62,61,56,48,84,62,26,29.92,29.67,9,1,14,0.10
2013-8-24,87,72,58,57,54,50,84,57,28,29.82,29.72,9,1,19,0.03
2013-8-25,91,75,63,57,53,49,70,49,25,29.84,29.74,7,1,12,0.00
2013-8-26,93,77,63,58,55,50,77,50,24,29.81,29.72,8,1,16,0.00
2013-8-27,94,78,63,59,55,48,77,48,25,29.80,29.67,8,0,13,0.00
2013-8-28,96,78,63,58,53,44,74,47,19,29.76,29.68,5,1,11,0.00
2013-8-29,95,79,63,54,50,44,65,40,19,29.82,29.74,10,1,22,0.00
2013-8-30,91,76,69,59,54,48,63,48,24,29.82,29.74,8,1,14,0.05
2013-8-31,91,76,66,58,52,45,68,45,22,29.79,29.71,9,1,17,0.00
2013-9-1,81,71,64,59,56,50,80,60,46,29.89,29.79,5,0,8,0.01
2013-9-2,91,75,59,58,54,46,85,52,23,29.87,29.70,6,0,9,0.00
2013-9-3,97,80,68,56,52,47,66,40,19,29.77,29.66,7,1,15,0.00
2013-9-4,95,78,69,60,54,50,73,45,24,29.83,29.74,7,0,11,0.00
2013-9-5,96,78,65,63,53,47,68,46,20,29.87,29.74,8,1,15,0.06
2013-9-6,100,79,63,57,50,38,66,41,13,29.82,29.67,9,1,15,0.00
2013-9-7,97,78,62,53,48,36,65,39,15,29.77,29.64,7,1,10,0.00
2013-9-8,93,75,61,55,49,45,62,42,21,29.69,29.51,7,1,10,0.00
2013-9-9,85,68,58,62,54,51,93,66,33,29.80,29.51,18,1,26,0.72
2013-9-10,66,61,59,60,58,57,94,91,78,30.01,29.75,6,1,11,0.21
2013-9-11,69,62,60,63,60,59,95,93,78,30.00,29.95,5,1,9,0.59
2013-9-12,64,61,59,62,60,57,96,94,89,30.07,29.97,10,2,16,1.53
2013-9-13,71,60,58,62,58,57,96,93,70,29.99,29.78,3,0,6,0.18
2013-9-14,77,65,59,60,58,53,93,79,48,29.80,29.61,7,1,15,0.29
2013-9-15,61,58,55,57,55,54,94,92,81,30.12,29.80,6,1,11,0.25
2013-9-16,77,63,55,58,55,53,94,77,48,30.10,29.84,5,0,8,0.00
2013-9-17,89,70,52,54,46,31,88,51,15,29.85,29.56,6,1,10,0.00
2013-9-18,89,70,58,52,47,41,72,45,22,29.61,29.47,10,1,18,0.00
2013-9-19,67,61,53,46,42,36,72,51,41,30.00,29.60,8,1,12,0.00
2013-9-20,75,61,50,48,45,41,81,59,32,30.02,29.85,6,1,9,0.00
2013-9-21,87,67,49,48,43,36,81,48,19,29.86,29.56,7,1,13,0.00
2013-9-22,81,65,54,52,46,39,88,52,25,29.56,29.32,15,1,24,0.07
2013-9-23,67,58,50,53,40,31,94,57,28,29.90,29.31,12,4,25,0.93
2013-9-24,80,61,44,42,36,30,73,44,18,30.00,29.66,6,0,8,0.00
2013-9-25,87,67,46,50,37,30,76,39,13,29.66,29.22,7,1,19,0.00
2013-9-26,70,59,47,48,43,34,80,57,30,29.55,29.30,6,1,11,0.00
2013-9-27,54,48,42,50,45,40,93,89,75,29.95,29.55,7,1,11,0.16
2013-9-28,71,53,36,39,33,22,93,51,19,30.11,29.95,9,1,13,0.00
2013-9-29,80,60,42,41,34,24,75,45,13,30.02,29.74,6,1,9,0.00
2013-9-30,84,67,54,47,39,33,56,38,19,29.75,29.54,6,1,9,0.00
2013-10-1,76,62,49,45,41,31,69,47,28,29.84,29.65,8,1,15,0.00
2013-10-2,78,62,46,45,41,33,85,52,20,29.80,29.67,8,1,13,0.00
2013-10-3,64,54,44,48,42,39,91,67,45,29.72,29.56,10,2,14,0.02
2013-10-4,49,39,32,47,34,26,93,81,61,30.21,29.63,8,2,15,0.26
2013-10-5,62,44,29,34,23,14,89,51,17,30.29,30.16,10,-2,18,0.00
2013-10-6,69,51,36,38,29,22,65,46,21,30.24,30.12,7,1,9,0.00
2013-10-7,81,59,39,38,32,17,78,43,10,30.12,29.75,4,0,8,0.00
2013-10-8,80,63,49,40,34,22,59,36,13,29.75,29.49,8,1,14,0.00
2013-10-9,65,55,46,44,40,36,74,57,40,29.83,29.60,7,1,11,0.00
2013-10-10,62,51,45,49,43,41,87,75,56,29.83,29.40,12,1,23,0.07
2013-10-11,62,53,44,42,34,27,85,51,31,29.93,29.40,10,1,19,0.00
2013-10-12,59,48,41,42,40,37,91,75,52,30.10,29.93,6,1,11,0.00
2013-10-13,63,50,37,45,40,34,91,72,48,30.09,29.79,6,1,10,0.01
2013-10-14,57,47,40,45,38,32,89,73,50,30.13,29.73,11,2,21,0.09
2013-10-15,43,39,35,32,27,24,72,62,54,30.31,30.13,7,1,11,0.00
2013-10-16,54,41,30,32,28,25,87,61,33,30.25,30.02,6,-6,10,0.00
2013-10-17,49,42,36,33,30,26,73,63,49,30.15,30.02,9,1,11,0.00
2013-10-18,44,38,32,35,30,27,93,74,54,30.21,30.03,7,1,13,0.21
2013-10-19,65,48,31,29,25,20,83,47,19,30.17,29.86,9,1,16,0.00
2013-10-20,56,45,35,36,31,22,91,64,27,30.10,29.79,9,2,15,0.09
2013-10-21,61,44,31,38,31,26,94,65,27,30.24,30.09,7,0,10,0.01
2013-10-22,64,49,37,35,32,28,75,54,27,30.19,30.06,7,1,10,0.00
2013-10-23,66,51,38,36,33,30,75,53,28,30.13,30.05,7,1,10,0.00
2013-10-24,55,45,36,39,36,31,88,71,52,30.22,30.13,6,1,10,0.00
2013-10-25,69,51,34,38,34,30,91,58,25,30.20,30.04,7,1,11,0.00
2013-10-26,64,52,40,38,34,31,77,52,31,30.25,30.03,6,1,9,0.00
2013-10-27,72,54,38,32,28,22,70,43,16,30.03,29.73,8,1,13,0.00
2013-10-28,49,38,33,34,32,28,94,79,44,30.06,29.74,6,2,12,0.02
2013-10-29,39,36,33,35,33,31,94,87,77,30.09,29.90,4,-3,6,0.01
2013-10-30,48,40,34,40,35,27,94,83,60,29.96,29.82,9,1,12,0.09
2013-10-31,54,45,31,29,23,19,86,46,26,29.88,29.81,14,3,26,0.00
2013-11-1,52,44,36,33,27,21,71,51,30,30.19,29.86,9,1,16,0.00
2013-11-2,65,45,29,32,25,20,75,49,19,30.22,29.72,5,-3,8,0.00
2013-11-3,69,52,38,31,20,11,75,32,12,29.73,29.43,8,2,14,0.01
2013-11-4,44,37,31,31,21,14,85,55,32,29.98,29.72,10,2,15,0.00
2013-11-5,46,35,27,25,16,3,73,48,19,30.23,29.94,12,2,20,0.00
2013-11-6,52,39,24,19,15,9,59,38,24,30.40,30.20,15,0,29,0.00
2013-11-7,60,44,29,28,22,17,66,43,25,30.40,29.99,6,-6,11,0.00
2013-11-8,67,50,36,26,23,18,60,37,16,29.99,29.75,13,1,20,0.00
2013-11-9,66,49,38,34,28,25,65,48,23,30.19,29.93,7,1,10,0.00
2013-11-10,68,49,32,31,26,19,81,46,16,30.21,30.08,5,0,8,0.00
2013-11-11,70,41,32,32,26,19,85,60,15,30.68,30.14,13,-2,21,0.00
2013-11-12,60,44,32,32,29,26,86,59,31,30.68,30.36,5,1,9,0.00
2013-11-13,71,51,33,26,18,8,70,34,9,30.36,29.93,7,1,13,0.00
2013-11-14,61,52,42,34,29,20,59,43,27,29.97,29.65,9,2,16,0.00
2013-11-15,67,50,32,29,20,13,65,35,13,29.65,29.39,9,1,17,0.00
2013-11-16,61,46,35,32,24,14,72,45,17,29.49,29.20,11,2,19,0.00
2013-11-17,59,45,36,27,19,15,65,37,19,30.04,29.49,14,3,29,0.00
2013-11-18,67,46,28,21,17,10,65,35,11,30.14,29.98,5,-6,8,0.00
2013-11-19,62,47,32,28,21,17,55,37,19,29.98,29.67,9,-3,14,0.00
2013-11-20,61,49,30,28,25,23,77,41,24,29.95,29.65,9,1,19,0.00
2013-11-21,30,18,15,24,14,9,89,84,77,30.84,29.96,7,-5,12,0.00
2013-11-22,36,28,18,22,17,8,82,65,42,30.83,30.69,5,-10,11,0.08
2013-11-23,37,30,26,22,18,8,77,62,41,30.78,30.44,5,-10,8,0.01
2013-11-24,39,31,24,28,23,19,83,74,45,30.43,30.09,5,0,13,0.00
2013-11-25,42,37,30,29,23,16,80,58,35,30.36,30.14,8,1,13,0.00
2013-11-26,50,37,27,28,22,18,83,57,29,30.50,30.30,7,1,11,0.00
2013-11-27,66,44,30,23,20,18,65,43,16,30.30,30.03,6,-10,9,0.00
2013-11-28,49,37,28,27,24,21,76,60,40,30.20,30.12,5,-6,10,0.00
2013-11-29,63,44,29,24,21,17,80,47,17,30.19,30.10,6,-3,10,0.00
2013-11-30,63,44,30,20,17,12,61,37,15,30.17,30.07,7,-3,11,0.00
2013-12-1,58,45,30,26,20,16,57,38,23,30.15,29.83,14,-1,28,0.00
2013-12-2,62,54,42,26,22,20,47,30,21,29.84,29.42,13,3,25,0.00
2013-12-3,57,38,14,30,19,9,82,50,28,29.77,29.30,10,-1,19,0.00
2013-12-4,14,9,3,8,4,-2,84,81,77,30.42,29.77,7,-5,13,0.00
2013-12-5,9,4,-2,1,-2,-6,84,76,65,30.54,30.38,5,-23,10,0.00
2013-12-6,10,3,-2,3,-2,-6,83,78,70,30.65,30.53,6,-13,9,0.00
2013-12-7,11,4,-1,4,-1,-5,85,80,71,30.64,30.27,6,-4,8,0.00
2013-12-8,21,10,4,12,4,0,85,78,61,30.35,30.09,5,-7,9,0.01
2013-12-9,30,16,3,6,1,-5,81,55,21,30.43,30.31,9,-5,14,0.01
2013-12-10,49,31,14,17,10,2,61,44,24,30.41,30.07,13,2,28,0.07
2013-12-11,36,25,16,19,15,10,80,67,46,30.50,30.36,7,-10,11,0.00
2013-12-12,58,34,18,24,17,12,81,57,18,30.49,30.02,5,-3,7,0.00
2013-12-13,52,34,21,21,17,13,76,53,22,30.24,29.89,10,1,15,0.00
2013-12-14,47,34,24,20,17,13,73,51,26,30.37,30.23,6,-3,11,0.00
2013-12-15,57,44,29,23,18,12,64,39,20,30.26,30.10,11,2,18,0.00
2013-12-16,63,51,38,22,15,9,45,26,12,30.16,29.99,10,2,18,0.00
2013-12-17,66,47,32,19,16,14,54,33,14,30.29,30.01,9,1,14,0.00
2013-12-18,69,52,41,20,16,11,38,25,11,30.01,29.60,7,1,12,0.00
2013-12-19,47,35,18,25,20,14,87,56,39,29.91,29.46,8,1,16,0.00
2013-12-20,25,21,17,21,18,14,89,87,82,29.94,29.84,5,-6,8,0.00
2013-12-21,33,24,17,24,19,14,92,83,63,30.08,29.75,6,-3,10,0.00
2013-12-22,41,30,18,21,16,10,90,63,29,30.35,30.08,14,3,24,0.02
2013-12-23,49,32,20,25,21,17,88,68,33,30.42,30.20,8,-2,12,0.04
2013-12-24,55,41,27,30,20,11,56,43,28,30.28,29.97,17,2,30,0.00
2013-12-25,48,32,20,13,10,6,69,43,19,30.50,30.28,5,1,13,0.00
2013-12-26,55,40,28,16,13,8,50,34,18,30.38,30.27,7,-3,9,0.00
2013-12-27,60,43,31,22,19,16,56,41,21,30.31,30.04,4,0,6,0.00
2013-12-28,60,37,23,28,22,19,89,57,23,30.28,29.83,11,-2,24,0.00
2013-12-29,39,27,17,21,17,12,88,68,36,30.34,30.06,8,-3,12,0.09
2013-12-30,49,40,31,18,15,12,55,37,22,30.30,30.11,14,4,21,0.00
2013-12-31,59,44,31,23,20,14,56,39,23,30.12,29.88,11,2,18,0.00
2014-1-1,45,34,24,31,26,21,88,72,40,30.35,29.85,13,-9,21,0.03
2014-1-2,49,32,20,25,21,15,87,67,29,30.43,30.11,5,-3,7,0.04